createdAt,value
2019-03-11T00:00:41.963Z,12.18
2019-03-11T00:04:45.559Z,8.75
2019-03-11T00:08:49.172Z,13.50
2019-03-11T00:12:52.755Z,8.20
2019-03-11T00:16:56.477Z,7.10
2019-03-11T00:21:00.027Z,11.60
2019-03-11T00:25:03.819Z,9.68
2019-03-11T00:29:07.432Z,4.03
2019-03-11T00:33:11.041Z,3.10
2019-03-11T00:37:14.638Z,4.97
2019-03-11T00:41:18.223Z,6.03
2019-03-11T00:45:24.159Z,6.62
2019-03-11T00:49:27.063Z,10.53
2019-03-11T00:53:30.648Z,8.73
2019-03-11T00:57:34.247Z,7.97
2019-03-11T01:01:37.820Z,8.80
2019-03-11T01:05:41.405Z,9.63
2019-03-11T01:09:45.029Z,7.40
2019-03-11T01:13:48.627Z,8.10
2019-03-11T01:17:52.269Z,11.15
2019-03-11T01:21:55.845Z,7.97
2019-03-11T01:25:59.415Z,9.70
2019-03-11T01:30:03.588Z,12.37
2019-03-11T01:34:07.188Z,14.05
2019-03-11T01:38:10.792Z,12.00
2019-03-11T01:42:14.599Z,20.12
2019-03-11T01:46:18.255Z,13.48
2019-03-11T01:50:21.880Z,5.50
2019-03-11T01:54:25.524Z,17.40
2019-03-11T01:58:29.124Z,12.85
2019-03-11T02:02:32.696Z,7.75
2019-03-11T02:06:36.294Z,5.58
2019-03-11T02:10:39.893Z,5.12
2019-03-11T02:14:43.542Z,3.87
2019-03-11T02:18:47.142Z,2.45
2019-03-11T02:22:50.842Z,10.23
2019-03-11T02:26:54.435Z,1.92
2019-03-11T02:30:58.075Z,11.55
2019-03-11T02:35:01.708Z,5.17
2019-03-11T02:39:07.202Z,2.83
2019-03-11T02:43:10.778Z,7.75
2019-03-11T02:47:14.358Z,8.95
2019-03-11T02:51:17.960Z,8.48
2019-03-11T02:55:21.597Z,10.72
2019-03-11T02:59:25.742Z,10.63
2019-03-11T03:03:33.393Z,13.95
2019-03-11T03:07:36.981Z,15.78
2019-03-11T03:11:40.580Z,8.85
2019-03-11T03:15:44.176Z,8.00
2019-03-11T03:19:47.752Z,7.87
2019-03-11T03:23:51.332Z,12.70
2019-03-11T03:27:55.021Z,18.55
2019-03-11T03:31:58.729Z,7.05
2019-03-11T03:36:02.748Z,6.67
2019-03-11T03:40:12.183Z,5.95
2019-03-11T03:44:15.846Z,2.55
2019-03-11T03:48:19.464Z,9.50
2019-03-11T03:52:26.192Z,5.72
2019-03-11T03:56:29.791Z,13.93
2019-03-11T04:00:33.612Z,7.67
2019-03-11T04:04:37.194Z,9.45
2019-03-11T04:08:40.779Z,10.98
2019-03-11T04:12:44.507Z,4.33
2019-03-11T04:16:48.209Z,13.58
2019-03-11T04:20:51.814Z,2.72
2019-03-11T04:24:55.377Z,2.98
2019-03-11T04:28:58.936Z,3.50
2019-03-11T04:33:02.603Z,12.07
2019-03-11T04:37:06.197Z,5.97
2019-03-11T04:41:09.863Z,6.65
2019-03-11T04:45:17.399Z,8.23
2019-03-11T04:49:20.964Z,8.98
2019-03-11T04:53:24.552Z,5.85
2019-03-11T04:57:30.757Z,5.42
2019-03-11T05:01:34.310Z,6.37
2019-03-11T05:05:37.952Z,8.25
2019-03-11T05:09:41.532Z,14.23
2019-03-11T05:13:45.130Z,4.65
2019-03-11T05:17:49.055Z,12.07
2019-03-11T05:21:52.671Z,17.48
2019-03-11T05:25:56.254Z,13.72
2019-03-11T05:29:59.841Z,15.85
2019-03-11T05:34:03.507Z,6.45
2019-03-11T05:38:07.095Z,5.45
2019-03-11T05:42:10.703Z,14.85
2019-03-11T05:46:14.296Z,9.40
2019-03-11T05:50:18.723Z,8.63
2019-03-11T05:54:22.319Z,13.05
2019-03-11T05:58:25.932Z,4.75
2019-03-11T06:02:29.504Z,4.95
2019-03-11T06:06:33.411Z,1.32
2019-03-11T06:10:37.032Z,8.95
2019-03-11T06:14:40.625Z,14.63
2019-03-11T06:18:45.872Z,9.98
2019-03-11T06:26:52.233Z,15.95
2019-03-11T06:30:55.806Z,5.92
2019-03-11T06:34:59.420Z,5.15
2019-03-11T06:39:06.124Z,7.97
2019-03-11T06:43:08.906Z,4.47
2019-03-11T06:47:12.503Z,9.65
2019-03-11T06:51:16.075Z,19.17
2019-03-11T06:55:19.743Z,4.92
2019-03-11T06:59:23.361Z,4.80
2019-03-11T07:03:26.934Z,2.33
2019-03-11T07:07:30.543Z,16.50
2019-03-11T07:11:34.132Z,10.35
2019-03-11T07:15:37.814Z,6.90
2019-03-11T07:19:41.402Z,5.42
2019-03-11T07:23:44.983Z,6.25
2019-03-11T07:27:48.581Z,8.83
2019-03-11T07:31:52.293Z,6.33
2019-03-11T07:35:56.063Z,2.27
2019-03-11T07:39:59.711Z,3.45
2019-03-11T07:44:03.435Z,5.20
2019-03-11T07:48:07.170Z,7.60
2019-03-11T07:52:10.811Z,8.23
2019-03-11T07:56:24.819Z,11.65
2019-03-11T08:00:28.516Z,9.50
2019-03-11T08:04:32.071Z,2.10
2019-03-11T08:08:35.871Z,6.47
2019-03-11T08:12:39.414Z,2.12
2019-03-11T08:16:43.019Z,2.22
2019-03-11T08:20:46.611Z,10.25
2019-03-11T08:24:50.223Z,4.10
2019-03-11T08:28:53.801Z,5.97
2019-03-11T08:32:57.383Z,12.43
2019-03-11T08:37:00.975Z,1.45
2019-03-11T08:41:04.635Z,6.00
2019-03-11T08:45:11.543Z,3.35
2019-03-11T08:49:15.255Z,1.40
2019-03-11T08:53:18.843Z,3.52
2019-03-11T08:57:22.462Z,3.17
2019-03-11T09:01:26.986Z,3.30
2019-03-11T09:05:30.592Z,6.30
2019-03-11T09:09:34.169Z,1.07
2019-03-11T09:13:37.740Z,9.85
2019-03-11T09:17:41.706Z,6.78
2019-03-11T09:21:45.267Z,3.00
2019-03-11T09:25:48.870Z,10.40
2019-03-11T09:29:52.455Z,4.15
2019-03-11T09:33:56.064Z,2.95
2019-03-11T09:37:59.666Z,6.15
2019-03-11T09:42:03.258Z,5.97
2019-03-11T09:46:06.903Z,2.05
2019-03-11T09:50:12.418Z,2.12
2019-03-11T09:54:16.020Z,8.63
2019-03-11T09:58:19.642Z,13.53
2019-03-11T10:02:23.223Z,10.88
2019-03-11T10:06:26.842Z,3.80
2019-03-11T10:10:51.287Z,3.93
2019-03-11T10:14:54.860Z,3.05
2019-03-11T10:18:58.453Z,1.30
2019-03-11T10:23:02.064Z,6.53
2019-03-11T10:27:05.828Z,8.30
2019-03-11T10:31:09.399Z,1.47
2019-03-11T10:35:30.962Z,3.20
2019-03-11T10:39:20.968Z,0.95
2019-03-11T10:43:24.558Z,7.35
2019-03-11T10:47:28.159Z,1.15
2019-03-11T10:51:31.738Z,0.55
2019-03-11T10:55:35.318Z,1.98
2019-03-11T10:59:38.928Z,4.40
2019-03-11T11:03:42.515Z,1.07
2019-03-11T11:07:46.122Z,0.78
2019-03-11T11:11:49.679Z,4.33
2019-03-11T11:15:53.259Z,2.65
2019-03-11T11:20:03.133Z,7.40
2019-03-11T11:24:02.104Z,5.17
2019-03-11T11:28:05.773Z,5.50
2019-03-11T11:32:09.343Z,1.65
2019-03-11T11:36:12.911Z,1.52
2019-03-11T11:40:43.231Z,1.45
2019-03-11T11:44:46.896Z,1.30
2019-03-11T11:48:50.492Z,3.55
2019-03-11T11:52:54.411Z,3.55
2019-03-11T11:56:57.989Z,6.15
2019-03-11T12:01:01.633Z,1.37
2019-03-11T12:05:08.418Z,7.72
2019-03-11T12:09:12.088Z,4.47
2019-03-11T12:13:15.663Z,2.12
2019-03-11T12:17:19.243Z,3.27
2019-03-11T12:21:22.915Z,3.47
2019-03-11T12:25:26.642Z,8.65
2019-03-11T12:29:30.304Z,8.98
2019-03-11T12:33:33.875Z,7.33
2019-03-11T12:37:37.519Z,2.30
2019-03-11T12:41:41.109Z,4.15
2019-03-11T12:45:44.745Z,4.33
2019-03-11T12:49:48.333Z,3.55
2019-03-11T12:53:51.905Z,3.27
2019-03-11T12:57:55.490Z,7.67
2019-03-11T13:01:59.087Z,3.17
2019-03-11T13:06:02.726Z,11.85
2019-03-11T13:10:09.399Z,5.92
2019-03-11T13:14:13.016Z,2.22
2019-03-11T13:18:28.527Z,0.95
2019-03-11T13:22:32.115Z,5.08
2019-03-11T13:26:35.709Z,0.75
2019-03-11T13:30:39.312Z,1.95
2019-03-11T13:34:42.887Z,1.40
2019-03-11T13:38:46.452Z,3.30
2019-03-11T13:42:50.065Z,3.50
2019-03-11T13:46:53.654Z,2.37
2019-03-11T13:50:57.264Z,3.58
2019-03-11T13:55:09.715Z,3.20
2019-03-11T13:59:06.229Z,1.82
2019-03-11T14:03:09.791Z,2.12
2019-03-11T14:07:13.387Z,4.87
2019-03-11T14:11:16.977Z,6.95
2019-03-11T14:15:21.391Z,4.03
2019-03-11T14:19:24.974Z,5.05
2019-03-11T14:23:28.571Z,1.90
2019-03-11T14:27:32.172Z,2.33
2019-03-11T14:31:35.768Z,3.30
2019-03-11T14:35:39.347Z,0.72
2019-03-11T14:39:43.099Z,5.47
2019-03-11T14:43:46.742Z,1.55
2019-03-11T14:47:50.366Z,0.62
2019-03-11T14:51:53.963Z,0.35
2019-03-11T14:55:57.530Z,0.40
2019-03-11T15:00:01.167Z,0.78
2019-03-11T15:04:04.887Z,0.10
2019-03-11T15:08:08.483Z,1.27
2019-03-11T15:12:12.544Z,0.15
2019-03-11T15:16:17.492Z,0.17
2019-03-11T15:20:21.288Z,0.00
2019-03-11T15:24:24.887Z,0.00
2019-03-11T15:28:28.531Z,0.20
2019-03-11T15:32:32.130Z,0.25
2019-03-11T15:36:35.730Z,0.85
2019-03-11T15:40:39.316Z,0.20
2019-03-11T15:44:42.930Z,0.60
2019-03-11T15:48:46.522Z,1.07
2019-03-11T15:52:50.150Z,1.47
2019-03-11T15:56:53.763Z,1.27
2019-03-11T16:00:57.335Z,1.05
2019-03-11T16:05:00.933Z,1.80
2019-03-11T16:09:06.081Z,6.47
2019-03-11T16:13:09.908Z,2.42
2019-03-11T16:17:13.586Z,4.47
2019-03-11T16:21:17.167Z,2.08
2019-03-11T16:25:20.763Z,2.02
2019-03-11T16:29:24.373Z,2.20
2019-03-11T16:33:27.976Z,2.50
2019-03-11T16:37:31.583Z,2.93
2019-03-11T16:41:35.463Z,2.65
2019-03-11T16:45:39.127Z,2.67
2019-03-11T16:49:42.722Z,3.62
2019-03-11T16:53:46.292Z,3.95
2019-03-11T16:57:49.956Z,2.75
2019-03-11T17:01:53.640Z,8.60
2019-03-11T17:05:57.235Z,3.42
2019-03-11T17:10:00.864Z,4.55
2019-03-11T17:14:04.789Z,5.40
2019-03-11T17:18:08.357Z,2.92
2019-03-11T17:22:11.934Z,2.62
2019-03-11T17:26:15.517Z,3.05
2019-03-11T17:30:26.801Z,2.20
2019-03-11T17:34:30.479Z,3.02
2019-03-11T17:38:34.095Z,3.60
2019-03-11T17:42:37.667Z,2.15
2019-03-11T17:46:41.259Z,3.00
2019-03-11T17:50:44.856Z,1.95
2019-03-11T17:54:48.516Z,2.87
2019-03-11T17:58:52.084Z,2.05
2019-03-11T18:02:55.731Z,3.12
2019-03-11T18:06:59.430Z,2.67
2019-03-11T18:11:03.103Z,4.92
2019-03-11T18:15:08.947Z,4.70
2019-03-11T18:23:15.398Z,3.60
2019-03-11T18:27:19.139Z,2.70
2019-03-11T18:31:22.821Z,3.35
2019-03-11T18:35:26.521Z,5.22
2019-03-11T18:39:30.160Z,5.75
2019-03-11T18:43:42.335Z,6.42
2019-03-11T18:47:39.855Z,8.60
2019-03-11T18:51:43.494Z,7.43
2019-03-11T18:55:47.035Z,11.45
2019-03-11T18:59:50.615Z,12.47
2019-03-11T19:03:54.225Z,11.48
2019-03-11T19:07:57.821Z,12.35
2019-03-11T19:12:01.521Z,16.90
2019-03-11T19:16:05.253Z,15.78
2019-03-11T19:20:12.086Z,14.07
2019-03-11T19:24:15.664Z,18.90
2019-03-11T19:28:19.289Z,15.05
2019-03-11T19:32:22.891Z,22.32
2019-03-11T19:36:26.921Z,21.50
2019-03-11T19:40:30.526Z,15.08
2019-03-11T19:44:34.089Z,18.00
2019-03-11T19:48:37.708Z,19.95
2019-03-11T19:52:41.339Z,18.25
2019-03-11T19:56:44.900Z,18.27
2019-03-11T20:00:48.484Z,16.25
2019-03-11T20:04:52.046Z,19.62
2019-03-11T20:08:55.651Z,17.73
2019-03-11T20:12:59.311Z,22.73
2019-03-11T20:17:02.975Z,17.32
2019-03-11T20:21:06.544Z,21.33
2019-03-11T20:25:19.179Z,17.48
2019-03-11T20:29:23.459Z,13.18
2019-03-11T20:33:27.351Z,15.73
2019-03-11T20:37:30.984Z,18.97
2019-03-11T20:41:34.546Z,13.90
2019-03-11T20:45:38.163Z,19.75
2019-03-11T20:49:41.914Z,24.25
2019-03-11T20:53:45.520Z,22.87
2019-03-11T20:57:49.453Z,25.43
2019-03-11T21:01:53.220Z,14.83
2019-03-11T21:05:59.779Z,18.90
2019-03-11T21:10:04.099Z,20.45
2019-03-11T21:14:08.791Z,21.60
2019-03-11T21:18:12.547Z,20.20
2019-03-11T21:22:16.188Z,27.55
2019-03-11T21:26:19.736Z,27.80
2019-03-11T21:30:24.736Z,22.87
2019-03-11T21:34:28.451Z,27.50
2019-03-11T21:38:32.095Z,22.27
2019-03-11T21:42:37.752Z,27.20
2019-03-11T21:46:40.951Z,25.97
2019-03-11T21:50:44.535Z,23.27
2019-03-11T21:54:48.162Z,23.20
2019-03-11T21:58:51.796Z,19.15
2019-03-11T22:02:55.407Z,23.75
2019-03-11T22:06:58.991Z,28.40
2019-03-11T22:11:02.686Z,19.20
2019-03-11T22:15:09.523Z,22.62
2019-03-11T22:19:13.227Z,22.10
2019-03-11T22:23:16.823Z,24.63
2019-03-11T22:27:20.556Z,23.25
2019-03-11T22:31:24.142Z,19.02
2019-03-11T22:35:29.095Z,21.23
2019-03-11T22:39:33.034Z,25.65
2019-03-11T22:43:36.539Z,20.48
2019-03-11T22:47:40.242Z,17.67
2019-03-11T22:51:44.128Z,22.85
2019-03-11T22:55:47.817Z,16.35
2019-03-11T22:59:51.441Z,28.87
2019-03-11T23:03:55.812Z,16.56
2019-03-11T23:07:59.470Z,13.45
2019-03-11T23:12:03.200Z,18.52
2019-03-11T23:16:06.798Z,17.62
2019-03-11T23:20:10.660Z,12.98
2019-03-11T23:24:14.258Z,28.92
2019-03-11T23:28:17.907Z,22.93
2019-03-11T23:32:21.536Z,29.63
2019-03-11T23:36:25.169Z,13.03
2019-03-11T23:40:28.795Z,23.10
2019-03-11T23:44:32.382Z,23.02
2019-03-11T23:48:36.004Z,12.60
2019-03-11T23:52:39.598Z,21.17
2019-03-11T23:56:43.200Z,18.80
